首页
METAR-TAF:

METAR-TAF

机场 :

NWS Office

馬久羅, 馬紹爾群島

纬度: 07-05N, 经度: 171-12E, 海拔: 4米

当前天气观测

该预报发布于1小时和14分钟前的14:52 UTC
风速9节,风向南转南东
温度 27°C
湿度 89%
气压 1008 hPa
能見度: 17.7公里
散云层高于1400英尺, 塔状积云.
多云层高于4500英尺
阴天层高于11000英尺
小阵雨

METAR: PKMR 171452Z 15009KT 11SM -SHRA SCT014TCU BKN045 OVC110 27/25 A2978 RMK SHRAB35 TCU ALQDS SLP086 60019 8/87/ T02650246 57012

时间: 04:06 (16:06 UTC)


TAF: 丢失

超过4000个机场的气象观测和天气预报(METAR&TAF报告)。

可查询的气象台以黄色和红色小点在地图上表示。

将鼠标移到小点上方,可查看气象台名称。

然后点击查看天气观测和预报。

如需切换地图:点击带黑十字的绿色按钮放大地图;点击带横线的绿色按钮缩小地图;或者点击绿色箭头查看邻近地区的地图。


METAR-TAF: